Time;durP1;ratioP1;P1;durP2;ratioP2;P2;SDS_P1;SDS_P2;PMS_P1;PMS_P2;Temp;Humidity;BMP_temperature;BMP_pressure;BME280_temperature;BME280_humidity;BME280_pressure;Samples;Min_cycle;Max_cycle;Signal;HPM_P1;HPM_P2
2023/03/25 00:00:57;;;;;;;4.85;1.38;;;9.00;99.90;;;;;;5087429;28;20234;-84
2023/03/25 00:03:28;;;;;;;6.10;1.50;;;9.00;99.90;;;;;;5069568;28;20035;-82
2023/03/25 00:05:55;;;;;;;2.78;1.08;;;9.00;99.90;;;;;;5085890;28;20092;-85
2023/03/25 00:08:21;;;;;;;5.07;1.42;;;9.00;99.90;;;;;;5086500;28;20028;-83
2023/03/25 00:10:58;;;;;;;4.78;1.63;;;9.00;99.90;;;;;;5086931;28;20571;-84
2023/03/25 00:13:24;;;;;;;1.17;0.93;;;9.00;99.90;;;;;;5084827;28;20028;-83
2023/03/25 00:15:52;;;;;;;3.42;1.30;;;9.00;99.90;;;;;;5086012;28;20036;-84
2023/03/25 00:18:21;;;;;;;6.20;1.25;;;9.00;99.90;;;;;;5085374;28;20257;-84
2023/03/25 00:20:51;;;;;;;6.15;1.92;;;9.00;99.90;;;;;;5087316;28;20537;-84
2023/03/25 00:23:19;;;;;;;4.20;1.45;;;9.00;99.90;;;;;;5085014;28;20037;-85
2023/03/25 00:25:45;;;;;;;4.43;1.20;;;9.00;99.90;;;;;;5088474;28;20054;-84
2023/03/25 00:28:15;;;;;;;8.40;1.48;;;9.00;99.90;;;;;;5084303;28;20060;-84
2023/03/25 00:30:42;;;;;;;1.85;1.17;;;9.10;99.90;;;;;;5086972;28;20024;-84
2023/03/25 00:33:09;;;;;;;7.57;1.42;;;9.10;99.90;;;;;;5084082;28;20028;-84
2023/03/25 00:35:37;;;;;;;3.13;1.20;;;9.10;99.90;;;;;;5082267;28;20027;-83
2023/03/25 00:38:03;;;;;;;4.40;1.30;;;9.10;99.90;;;;;;5086435;28;20035;-84
2023/03/25 00:40:33;;;;;;;7.22;2.08;;;9.10;99.90;;;;;;5087071;28;20032;-84
2023/03/25 00:43:00;;;;;;;2.42;1.10;;;9.10;99.90;;;;;;5085399;28;20031;-84
2023/03/25 00:45:27;;;;;;;8.60;1.42;;;9.10;99.90;;;;;;5083442;28;20024;-84
2023/03/25 00:47:53;;;;;;;3.33;1.17;;;9.10;99.90;;;;;;5076949;28;20032;-84
2023/03/25 00:50:20;;;;;;;6.50;1.92;;;9.10;99.90;;;;;;5076766;28;20409;-85
2023/03/25 00:52:46;;;;;;;4.93;1.38;;;9.00;99.90;;;;;;5067195;28;20398;-84
2023/03/25 00:55:12;;;;;;;2.22;1.27;;;9.00;99.90;;;;;;5083344;28;20032;-84
2023/03/25 00:57:38;;;;;;;9.00;1.33;;;9.00;99.90;;;;;;5085758;28;20036;-84
2023/03/25 01:00:07;;;;;;;6.60;1.30;;;9.00;99.90;;;;;;5082096;28;20035;-85
2023/03/25 01:02:33;;;;;;;6.05;1.40;;;9.10;99.90;;;;;;5083006;28;20032;-84
2023/03/25 01:04:59;;;;;;;8.15;1.98;;;9.10;99.90;;;;;;5083455;28;20024;-84
2023/03/25 01:07:28;;;;;;;4.47;1.40;;;9.10;99.90;;;;;;5086696;28;20043;-84
2023/03/25 01:09:54;;;;;;;6.50;1.90;;;9.00;99.90;;;;;;5080254;28;20088;-84
2023/03/25 01:12:20;;;;;;;4.03;1.10;;;9.10;99.90;;;;;;5085787;28;20485;-84
2023/03/25 01:14:46;;;;;;;8.77;1.63;;;9.10;99.90;;;;;;5086159;28;20070;-84
2023/03/25 01:17:12;;;;;;;4.03;1.00;;;9.00;99.90;;;;;;5083701;28;20120;-83
2023/03/25 01:19:38;;;;;;;2.47;1.23;;;9.00;99.90;;;;;;5080783;28;20054;-84
2023/03/25 01:22:04;;;;;;;6.43;1.13;;;9.00;99.90;;;;;;5080941;28;20114;-83
2023/03/25 01:24:30;;;;;;;5.53;1.60;;;9.00;99.90;;;;;;5067795;28;20151;-84
2023/03/25 01:26:55;;;;;;;6.40;1.98;;;9.00;99.90;;;;;;5063552;28;20028;-84
2023/03/25 01:29:21;;;;;;;3.50;1.35;;;8.90;99.90;;;;;;5085411;28;20461;-84
2023/03/25 01:31:47;;;;;;;10.90;1.45;;;8.90;99.90;;;;;;5081619;28;20024;-84
2023/03/25 01:34:14;;;;;;;4.50;1.30;;;8.90;99.90;;;;;;5086607;28;20028;-84
2023/03/25 01:36:40;;;;;;;2.22;1.10;;;8.90;99.90;;;;;;5085116;28;20039;-84
2023/03/25 01:39:09;;;;;;;6.20;1.50;;;8.80;99.90;;;;;;5081972;28;20104;-85
2023/03/25 01:41:36;;;;;;;7.90;1.75;;;8.80;99.90;;;;;;5085181;28;20035;-83
2023/03/25 01:44:07;;;;;;;3.85;1.20;;;8.80;99.90;;;;;;5067773;28;20312;-87
2023/03/25 01:46:34;;;;;;;3.30;1.00;;;8.80;99.90;;;;;;5085772;28;20489;-84
2023/03/25 01:49:03;;;;;;;11.52;1.63;;;8.80;99.90;;;;;;5084804;28;20027;-85
2023/03/25 01:51:34;;;;;;;5.80;1.20;;;8.80;99.90;;;;;;5084800;28;20066;-84
2023/03/25 01:54:00;;;;;;;8.82;1.67;;;8.80;99.90;;;;;;5082722;28;20036;-84
2023/03/25 01:56:30;;;;;;;10.45;2.50;;;8.80;99.90;;;;;;5067899;28;20098;-85
2023/03/25 01:59:03;;;;;;;7.93;1.70;;;8.80;99.90;;;;;;5082651;28;20046;-84
2023/03/25 02:01:30;;;;;;;12.70;1.67;;;8.80;99.90;;;;;;5081923;28;20047;-84
2023/03/25 02:04:01;;;;;;;6.03;1.30;;;8.80;99.90;;;;;;5085214;28;20037;-83
2023/03/25 02:06:35;;;;;;;7.30;1.60;;;8.80;99.90;;;;;;5079255;28;20031;-85
2023/03/25 02:09:07;;;;;;;8.30;1.50;;;8.80;99.90;;;;;;5077535;28;20506;-83
2023/03/25 02:11:34;;;;;;;2.33;1.67;;;8.80;99.90;;;;;;5085146;28;20537;-85
2023/03/25 02:14:05;;;;;;;2.83;0.95;;;8.70;99.90;;;;;;5086291;28;20111;-84
2023/03/25 02:17:06;;;;;;;5.65;1.40;;;8.70;99.90;;;;;;5086404;28;20086;-83
2023/03/25 02:20:07;;;;;;;12.02;1.52;;;8.70;99.90;;;;;;5040461;28;20565;-84
2023/03/25 02:22:48;;;;;;;5.25;1.27;;;8.70;99.90;;;;;;5057452;28;20554;-84
2023/03/25 02:25:40;;;;;;;1.20;0.85;;;8.70;99.90;;;;;;5083296;28;20052;-84
2023/03/25 02:28:24;;;;;;;6.95;1.48;;;8.70;99.90;;;;;;5086064;28;20020;-84
2023/03/25 02:31:24;;;;;;;3.05;1.15;;;8.70;99.90;;;;;;5088477;28;20096;-83
2023/03/25 02:34:03;;;;;;;3.85;0.95;;;8.70;99.90;;;;;;5084405;28;20034;-84
2023/03/25 02:36:32;;;;;;;6.38;1.20;;;8.80;99.90;;;;;;5088224;28;20485;-83
2023/03/25 02:39:21;;;;;;;3.90;1.20;;;8.80;99.90;;;;;;5088236;28;20055;-83
2023/03/25 02:41:56;;;;;;;2.42;1.17;;;8.90;99.90;;;;;;5084795;28;20024;-84
2023/03/25 02:44:34;;;;;;;6.68;1.25;;;8.90;99.90;;;;;;5079416;28;20036;-84
2023/03/25 02:47:04;;;;;;;9.07;1.30;;;8.90;99.90;;;;;;5089004;28;20047;-84
2023/03/25 02:49:35;;;;;;;5.93;1.25;;;8.90;99.90;;;;;;5079521;28;20033;-84
2023/03/25 02:52:32;;;;;;;3.65;1.08;;;8.90;99.90;;;;;;5087125;28;20028;-84
2023/03/25 02:55:03;;;;;;;2.25;1.20;;;9.00;99.90;;;;;;5045070;28;20036;-84
2023/03/25 02:57:31;;;;;;;7.10;1.10;;;8.90;99.90;;;;;;5089250;28;20043;-84
2023/03/25 02:59:58;;;;;;;1.80;0.73;;;8.90;99.90;;;;;;5087293;28;20031;-84
2023/03/25 03:02:27;;;;;;;5.65;1.23;;;8.90;99.90;;;;;;5088047;28;20028;-84
2023/03/25 03:04:55;;;;;;;4.30;1.02;;;8.90;99.90;;;;;;5086353;28;20031;-86
2023/03/25 03:07:31;;;;;;;5.38;1.35;;;8.90;99.90;;;;;;5088563;28;20028;-84
2023/03/25 03:10:34;;;;;;;2.20;0.95;;;8.90;99.90;;;;;;5087151;28;20051;-84
2023/03/25 03:13:20;;;;;;;11.63;1.15;;;8.90;99.90;;;;;;5043686;28;20115;-84
2023/03/25 03:15:56;;;;;;;6.32;1.10;;;8.90;99.90;;;;;;5086752;28;20030;-84
2023/03/25 03:18:56;;;;;;;3.33;1.20;;;8.80;99.90;;;;;;5087791;28;20459;-86
2023/03/25 03:21:38;;;;;;;3.38;1.25;;;8.90;99.90;;;;;;5087350;28;20044;-83
2023/03/25 03:24:09;;;;;;;2.85;1.02;;;8.90;99.90;;;;;;5087915;28;20558;-84
2023/03/25 03:26:52;;;;;;;8.60;1.73;;;8.90;99.90;;;;;;5088532;28;20085;-84
2023/03/25 03:29:26;;;;;;;5.10;1.10;;;8.90;99.90;;;;;;5090028;28;20031;-84
2023/03/25 03:32:05;;;;;;;4.55;1.33;;;8.80;99.90;;;;;;5086555;28;20113;-85
2023/03/25 03:34:55;;;;;;;2.50;1.05;;;8.80;99.90;;;;;;5087794;28;20055;-86
2023/03/25 03:37:36;;;;;;;3.63;1.20;;;8.80;99.90;;;;;;5084953;28;20051;-84
2023/03/25 03:40:10;;;;;;;2.90;1.20;;;8.80;99.90;;;;;;5083329;28;20036;-84
2023/03/25 03:42:41;;;;;;;1.55;0.90;;;8.70;99.90;;;;;;5086058;28;20393;-87
2023/03/25 03:45:17;;;;;;;1.45;0.85;;;8.70;99.90;;;;;;5089979;28;20468;-84
2023/03/25 03:47:48;;;;;;;3.58;1.02;;;8.70;99.90;;;;;;5082019;28;20030;-85
2023/03/25 03:50:19;;;;;;;3.63;1.30;;;8.70;99.90;;;;;;5081238;28;20031;-84
2023/03/25 03:53:01;;;;;;;5.68;0.95;;;8.70;99.90;;;;;;5083178;28;20077;-84
2023/03/25 03:55:42;;;;;;;6.18;1.27;;;8.70;99.90;;;;;;5087811;28;20112;-83
2023/03/25 03:58:21;;;;;;;1.58;0.80;;;8.70;99.90;;;;;;5088101;28;20508;-84
2023/03/25 04:01:10;;;;;;;2.00;0.77;;;8.80;99.90;;;;;;5085857;28;20028;-83
2023/03/25 04:03:44;;;;;;;6.38;1.13;;;8.80;99.90;;;;;;5087070;28;20038;-84
2023/03/25 04:06:28;;;;;;;2.90;1.20;;;8.80;99.90;;;;;;5087484;28;20035;-86
2023/03/25 04:09:04;;;;;;;7.82;1.75;;;8.80;99.90;;;;;;5084654;28;20051;-84
2023/03/25 04:11:39;;;;;;;4.95;1.15;;;8.90;99.90;;;;;;5083342;28;20028;-84
2023/03/25 04:14:06;;;;;;;3.10;1.07;;;8.90;99.90;;;;;;5083882;28;20203;-84
2023/03/25 04:16:32;;;;;;;2.10;1.20;;;8.90;99.90;;;;;;5079955;28;20790;-85
2023/03/25 04:18:58;;;;;;;5.65;1.27;;;8.80;99.90;;;;;;5083934;28;20127;-85
2023/03/25 04:21:24;;;;;;;6.22;1.65;;;8.80;99.90;;;;;;5086109;28;20044;-88
2023/03/25 04:23:50;;;;;;;4.45;0.77;;;8.70;99.90;;;;;;5086631;28;20028;-85
2023/03/25 04:26:16;;;;;;;3.45;1.20;;;8.50;99.90;;;;;;5085549;28;20469;-83
2023/03/25 04:28:43;;;;;;;2.72;1.50;;;8.40;99.90;;;;;;5087674;28;20067;-83
2023/03/25 04:31:15;;;;;;;3.38;1.13;;;8.30;99.90;;;;;;5083676;28;20092;-84
2023/03/25 04:33:45;;;;;;;3.47;1.00;;;8.20;99.90;;;;;;5077500;28;20119;-85
2023/03/25 04:36:14;;;;;;;4.95;1.35;;;8.20;99.90;;;;;;5087241;28;20067;-87
2023/03/25 04:38:44;;;;;;;4.28;1.10;;;8.20;99.90;;;;;;5081898;28;20031;-84
2023/03/25 04:41:11;;;;;;;4.07;1.23;;;8.10;99.90;;;;;;5080046;28;20024;-86
2023/03/25 04:43:38;;;;;;;4.53;1.30;;;8.10;99.90;;;;;;5086846;28;20356;-85
2023/03/25 04:46:04;;;;;;;3.45;1.50;;;8.10;99.90;;;;;;5080976;28;20120;-85
2023/03/25 04:48:34;;;;;;;7.78;1.20;;;8.00;99.90;;;;;;5082374;28;20082;-85
2023/03/25 04:51:02;;;;;;;5.82;1.30;;;8.00;99.90;;;;;;5079356;28;20024;-84
2023/03/25 04:53:28;;;;;;;3.78;1.40;;;8.00;99.90;;;;;;5086389;28;20251;-85
2023/03/25 04:55:55;;;;;;;2.83;1.20;;;7.90;99.90;;;;;;5087269;28;20404;-84
2023/03/25 04:58:21;;;;;;;4.75;1.33;;;7.90;99.90;;;;;;5086640;28;20036;-84
2023/03/25 05:00:49;;;;;;;3.75;1.45;;;7.90;99.90;;;;;;5086387;28;20115;-85
2023/03/25 05:03:16;;;;;;;2.25;1.23;;;7.90;99.90;;;;;;5083542;28;20055;-84
2023/03/25 05:05:42;;;;;;;10.60;1.35;;;7.90;99.90;;;;;;5087015;28;20035;-86
2023/03/25 05:08:10;;;;;;;3.33;1.30;;;7.90;99.90;;;;;;5087225;28;20480;-84
2023/03/25 05:10:37;;;;;;;4.82;1.45;;;8.00;99.90;;;;;;5084585;28;20469;-85
2023/03/25 05:13:05;;;;;;;6.82;1.40;;;7.90;99.90;;;;;;5083232;28;20059;-85
2023/03/25 05:15:38;;;;;;;4.82;1.65;;;8.00;99.90;;;;;;5078881;28;20111;-84
2023/03/25 05:18:08;;;;;;;3.92;1.70;;;8.00;99.90;;;;;;5079289;28;20048;-84
2023/03/25 05:20:36;;;;;;;2.75;1.10;;;8.00;99.90;;;;;;5084289;28;20051;-84
2023/03/25 05:23:03;;;;;;;4.30;1.30;;;8.00;99.90;;;;;;5085300;28;20381;-85
2023/03/25 05:25:33;;;;;;;1.38;1.08;;;8.00;99.90;;;;;;5079821;28;20120;-84
2023/03/25 05:28:04;;;;;;;1.65;1.20;;;8.00;99.90;;;;;;5067299;28;20029;-84
2023/03/25 05:30:37;;;;;;;5.18;1.10;;;8.00;99.90;;;;;;5066817;28;20077;-85
2023/03/25 05:33:07;;;;;;;3.95;1.33;;;8.10;99.90;;;;;;5085362;28;20038;-85
2023/03/25 05:35:32;;;;;;;5.35;1.23;;;8.00;99.90;;;;;;5084744;28;20027;-85
2023/03/25 05:37:58;;;;;;;6.72;1.30;;;8.10;99.90;;;;;;5082334;28;20051;-85
2023/03/25 05:40:25;;;;;;;5.85;1.17;;;8.10;99.90;;;;;;5081293;28;20036;-85
2023/03/25 05:42:53;;;;;;;5.65;1.50;;;8.20;99.90;;;;;;5078642;28;20383;-88
2023/03/25 05:45:22;;;;;;;10.57;1.20;;;8.20;99.90;;;;;;5061585;28;20441;-84
2023/03/25 05:47:48;;;;;;;6.25;1.10;;;8.20;99.90;;;;;;5073716;28;20028;-85
2023/03/25 05:50:14;;;;;;;6.50;1.33;;;8.20;99.90;;;;;;5080137;28;20020;-85
2023/03/25 05:52:40;;;;;;;5.30;1.45;;;8.20;99.90;;;;;;5080717;28;20032;-84
2023/03/25 05:55:09;;;;;;;5.80;1.30;;;8.20;99.90;;;;;;5086644;28;20062;-84
2023/03/25 05:57:35;;;;;;;2.40;1.35;;;8.20;99.90;;;;;;5082816;28;20193;-84
2023/03/25 06:00:01;;;;;;;2.10;1.02;;;8.20;99.90;;;;;;5081492;28;20520;-85
2023/03/25 06:02:27;;;;;;;6.43;1.15;;;8.20;99.90;;;;;;5085850;28;20024;-86
2023/03/25 06:04:53;;;;;;;3.08;1.00;;;8.20;99.90;;;;;;5087000;28;20059;-85
2023/03/25 06:07:18;;;;;;;2.75;1.20;;;8.30;99.90;;;;;;5085910;28;20024;-85
2023/03/25 06:09:53;;;;;;;7.20;1.67;;;8.30;99.90;;;;;;5086778;28;20043;-85
2023/03/25 06:12:22;;;;;;;7.78;1.30;;;8.30;99.90;;;;;;5077738;28;20119;-85
2023/03/25 06:14:52;;;;;;;4.78;1.30;;;8.40;99.90;;;;;;5080975;28;20025;-85
2023/03/25 06:17:21;;;;;;;2.38;0.90;;;8.40;99.90;;;;;;5082169;28;20513;-85
2023/03/25 06:19:47;;;;;;;4.95;1.20;;;8.40;99.90;;;;;;5075617;28;20279;-85
2023/03/25 06:22:13;;;;;;;7.38;1.40;;;8.40;99.90;;;;;;5077461;28;20489;-84
2023/03/25 06:24:40;;;;;;;5.82;1.55;;;8.40;99.90;;;;;;5077402;28;20031;-86
2023/03/25 06:27:11;;;;;;;5.55;1.92;;;8.40;99.90;;;;;;5079528;28;20024;-85
2023/03/25 06:29:36;;;;;;;10.23;1.88;;;8.40;99.90;;;;;;5080862;28;20077;-85
2023/03/25 06:32:05;;;;;;;4.68;1.23;;;8.40;99.90;;;;;;5083392;28;20001;-85
2023/03/25 06:34:38;;;;;;;2.60;0.90;;;8.40;99.90;;;;;;5073087;28;20024;-85
2023/03/25 06:37:04;;;;;;;5.65;1.40;;;8.40;99.90;;;;;;5076036;28;20093;-85
2023/03/25 06:39:30;;;;;;;6.95;1.17;;;8.40;99.90;;;;;;5080001;28;20032;-84
2023/03/25 06:41:57;;;;;;;2.38;1.27;;;8.50;99.90;;;;;;5086205;28;20362;-84
2023/03/25 06:44:23;;;;;;;6.10;1.92;;;8.40;99.90;;;;;;5083223;28;20032;-85
2023/03/25 06:46:48;;;;;;;13.32;1.90;;;8.40;99.90;;;;;;5082331;28;20024;-85
2023/03/25 06:49:14;;;;;;;6.32;1.45;;;8.50;99.90;;;;;;5083907;28;20030;-85
2023/03/25 06:51:40;;;;;;;9.80;1.65;;;8.40;99.90;;;;;;5079700;28;20085;-85
2023/03/25 06:54:06;;;;;;;3.65;1.33;;;8.40;99.90;;;;;;5076023;28;20043;-85
2023/03/25 06:56:34;;;;;;;3.75;0.90;;;8.40;99.90;;;;;;5083869;28;20032;-84
2023/03/25 06:59:00;;;;;;;4.05;1.85;;;8.40;99.90;;;;;;5072668;28;20037;-84
2023/03/25 07:01:25;;;;;;;6.10;1.45;;;8.40;99.90;;;;;;5081721;28;20028;-86
2023/03/25 07:03:51;;;;;;;5.75;1.42;;;8.50;99.90;;;;;;5079432;28;20463;-85
2023/03/25 07:06:19;;;;;;;6.13;1.38;;;8.50;99.90;;;;;;5082948;28;20473;-85
2023/03/25 07:08:46;;;;;;;8.43;1.90;;;8.60;99.90;;;;;;5081904;28;20028;-84
2023/03/25 07:11:14;;;;;;;4.47;1.95;;;8.50;99.90;;;;;;5084162;28;20595;-88
2023/03/25 07:13:39;;;;;;;8.38;3.58;;;8.60;99.90;;;;;;5073783;28;20058;-84
2023/03/25 07:16:05;;;;;;;12.00;5.22;;;8.60;99.90;;;;;;5079128;28;20506;-85
2023/03/25 07:18:35;;;;;;;6.07;2.00;;;8.60;99.90;;;;;;5084918;28;20028;-84
2023/03/25 07:21:00;;;;;;;6.95;3.20;;;8.60;99.90;;;;;;5087188;28;20034;-89
2023/03/25 07:23:26;;;;;;;3.22;1.13;;;8.60;99.90;;;;;;5083145;28;20476;-86
2023/03/25 07:25:55;;;;;;;5.32;1.40;;;8.60;99.90;;;;;;5080023;28;20028;-85
2023/03/25 07:28:21;;;;;;;5.55;1.15;;;8.70;99.90;;;;;;5089632;28;20032;-88
2023/03/25 07:30:47;;;;;;;3.22;1.38;;;8.70;99.90;;;;;;5084267;28;20023;-87
2023/03/25 07:33:13;;;;;;;1.55;0.95;;;8.70;99.90;;;;;;5089570;28;20115;-81
2023/03/25 07:35:38;;;;;;;6.00;1.15;;;8.70;99.90;;;;;;5086717;28;20541;-85
2023/03/25 07:38:04;;;;;;;2.47;1.15;;;8.70;99.90;;;;;;5083037;28;20036;-85
2023/03/25 07:40:30;;;;;;;2.88;0.95;;;8.80;99.90;;;;;;5086782;28;20020;-89
2023/03/25 07:42:55;;;;;;;4.32;1.20;;;8.80;99.90;;;;;;5083428;28;20111;-86
2023/03/25 07:45:21;;;;;;;5.13;1.23;;;8.90;99.90;;;;;;5087721;28;20278;-87
2023/03/25 07:47:49;;;;;;;4.38;1.60;;;8.90;99.90;;;;;;5087448;28;20184;-85
2023/03/25 07:50:16;;;;;;;3.85;1.13;;;9.00;99.90;;;;;;5082391;28;20020;-84
2023/03/25 07:52:43;;;;;;;2.30;0.93;;;9.00;99.90;;;;;;5081957;28;20029;-83
2023/03/25 07:55:08;;;;;;;1.40;1.00;;;9.10;99.90;;;;;;5079922;28;20044;-87
2023/03/25 07:57:34;;;;;;;6.97;1.13;;;9.20;99.90;;;;;;5080178;28;20168;-89
2023/03/25 07:59:59;;;;;;;4.60;1.10;;;9.20;99.90;;;;;;5083130;28;20497;-86
2023/03/25 08:02:25;;;;;;;1.83;0.80;;;9.20;99.90;;;;;;5065004;28;20599;-84
2023/03/25 08:04:53;;;;;;;2.67;1.00;;;9.20;99.90;;;;;;5085640;28;20032;-86
2023/03/25 08:07:19;;;;;;;10.90;1.13;;;9.20;99.90;;;;;;5083802;28;20032;-86
2023/03/25 08:09:45;;;;;;;1.88;0.80;;;9.30;99.90;;;;;;5064145;28;20055;-85
2023/03/25 08:12:10;;;;;;;2.28;1.08;;;9.30;99.90;;;;;;5084455;28;20346;-84
2023/03/25 08:14:36;;;;;;;10.40;1.00;;;9.20;99.90;;;;;;5080229;28;20060;-84
2023/03/25 08:17:03;;;;;;;3.63;1.20;;;9.40;99.90;;;;;;5086117;28;20036;-85
2023/03/25 08:19:28;;;;;;;4.32;1.13;;;9.40;99.90;;;;;;5081380;28;20393;-82
2023/03/25 08:21:54;;;;;;;4.93;1.27;;;9.30;99.90;;;;;;5083492;28;20020;-85
2023/03/25 08:24:20;;;;;;;3.80;1.40;;;9.30;99.90;;;;;;5082205;28;20107;-85
2023/03/25 08:26:47;;;;;;;1.75;1.00;;;9.40;99.90;;;;;;5081124;28;20028;-86
2023/03/25 08:29:16;;;;;;;4.47;0.80;;;9.40;99.90;;;;;;5084239;28;20530;-82
2023/03/25 08:31:45;;;;;;;3.22;0.70;;;9.40;99.90;;;;;;5086000;28;20036;-80
2023/03/25 08:34:12;;;;;;;2.92;1.00;;;9.50;99.90;;;;;;5085615;28;20044;-85
2023/03/25 08:36:38;;;;;;;10.48;1.15;;;9.50;99.90;;;;;;5072996;28;20045;-82
2023/03/25 08:39:10;;;;;;;4.97;1.42;;;9.50;99.90;;;;;;5080945;28;20027;-81
2023/03/25 08:41:37;;;;;;;1.70;1.20;;;9.60;99.90;;;;;;5084087;28;20056;-81
2023/03/25 08:44:06;;;;;;;15.90;1.25;;;9.60;99.90;;;;;;5059243;28;20024;-85
2023/03/25 08:46:32;;;;;;;2.42;1.05;;;9.60;99.90;;;;;;5082008;28;20111;-82
2023/03/25 08:48:57;;;;;;;2.55;1.08;;;9.80;99.90;;;;;;5082224;28;20114;-81
2023/03/25 08:51:23;;;;;;;6.25;1.13;;;9.90;99.90;;;;;;5081542;28;20054;-85
2023/03/25 08:53:49;;;;;;;5.97;1.13;;;9.90;99.90;;;;;;5079824;28;20084;-82
2023/03/25 08:56:15;;;;;;;3.03;1.17;;;10.10;99.90;;;;;;5076423;28;20044;-81
2023/03/25 08:58:41;;;;;;;6.80;1.40;;;10.00;99.90;;;;;;5066423;28;20031;-84
2023/03/25 09:01:06;;;;;;;7.50;1.00;;;10.10;99.90;;;;;;5068211;28;20027;-83
2023/03/25 09:03:32;;;;;;;5.38;0.63;;;10.20;99.90;;;;;;5083965;28;20024;-86
2023/03/25 09:06:02;;;;;;;2.75;1.00;;;10.30;99.90;;;;;;5078605;28;20028;-82
2023/03/25 09:08:27;;;;;;;2.50;0.70;;;10.30;99.90;;;;;;5084202;28;20032;-85
2023/03/25 09:10:54;;;;;;;5.18;1.10;;;10.30;99.90;;;;;;5068702;28;20054;-83
2023/03/25 09:13:20;;;;;;;3.65;0.90;;;10.10;99.90;;;;;;5079931;28;20428;-86
2023/03/25 09:15:45;;;;;;;3.13;1.02;;;10.00;99.90;;;;;;5083931;28;20031;-83
2023/03/25 09:18:12;;;;;;;6.30;1.10;;;9.90;99.90;;;;;;5085556;28;20078;-84
2023/03/25 09:20:38;;;;;;;4.80;1.10;;;9.90;99.90;;;;;;5085311;28;20100;-84
2023/03/25 09:23:03;;;;;;;3.03;0.80;;;9.90;99.90;;;;;;5087586;28;20464;-83
2023/03/25 09:25:29;;;;;;;4.30;1.10;;;9.80;99.90;;;;;;5082486;28;20024;-85
2023/03/25 09:27:55;;;;;;;1.23;0.60;;;9.90;99.90;;;;;;5081291;28;20035;-84
2023/03/25 09:30:21;;;;;;;3.45;1.20;;;9.90;99.90;;;;;;5081282;28;20058;-84
2023/03/25 09:32:47;;;;;;;7.18;1.27;;;10.00;99.90;;;;;;5081717;28;20035;-86
2023/03/25 09:35:12;;;;;;;8.80;1.35;;;10.00;99.90;;;;;;5082845;28;20032;-83
2023/03/25 09:37:38;;;;;;;3.70;1.05;;;10.00;99.90;;;;;;5073587;28;20040;-80
2023/03/25 09:40:04;;;;;;;1.90;0.90;;;10.00;99.90;;;;;;5083359;28;20234;-81
2023/03/25 09:43:02;;;;;;;3.72;1.05;;;10.10;99.90;;;;;;5079098;28;20069;-82
2023/03/25 09:45:39;;;;;;;5.20;1.15;;;10.10;99.90;;;;;;5080774;28;21637;-82
2023/03/25 09:48:31;;;;;;;3.03;0.85;;;10.30;99.90;;;;;;5080012;28;20031;-84
2023/03/25 09:51:32;;;;;;;1.67;1.02;;;10.30;99.90;;;;;;5079761;28;20519;-88
2023/03/25 09:54:03;;;;;;;3.60;1.30;;;10.30;99.90;;;;;;5082530;28;20028;-83
2023/03/25 09:56:34;;;;;;;4.72;0.88;;;10.30;99.90;;;;;;5063793;28;20067;-85
2023/03/25 09:59:22;;;;;;;2.95;0.70;;;10.30;99.90;;;;;;5065271;28;20052;-86
2023/03/25 10:02:25;;;;;;;3.42;0.98;;;10.30;99.90;;;;;;5061147;28;20381;-83
2023/03/25 10:05:20;;;;;;;8.20;1.00;;;10.10;99.90;;;;;;5056636;28;20394;-82
2023/03/25 10:08:05;;;;;;;4.90;1.02;;;10.00;99.90;;;;;;5042735;28;20498;-83
2023/03/25 10:10:43;;;;;;;6.80;1.40;;;10.00;99.90;;;;;;5064812;28;20050;-82
2023/03/25 10:13:27;;;;;;;4.80;0.90;;;9.90;99.90;;;;;;5065856;28;20377;-83
2023/03/25 10:15:55;;;;;;;3.03;0.80;;;9.90;99.90;;;;;;5057551;28;20109;-82
2023/03/25 10:18:46;;;;;;;3.78;1.00;;;10.10;99.90;;;;;;5057630;28;20036;-82
2023/03/25 10:21:23;;;;;;;2.47;1.25;;;10.10;99.90;;;;;;5041657;28;20409;-85
2023/03/25 10:24:04;;;;;;;0.52;0.50;;;10.20;99.90;;;;;;5059831;28;20024;-83
2023/03/25 10:26:42;;;;;;;6.22;1.00;;;10.30;99.90;;;;;;5054514;28;20128;-81
2023/03/25 10:29:13;;;;;;;6.55;1.13;;;10.40;99.90;;;;;;5058039;28;20017;-81
2023/03/25 10:31:48;;;;;;;2.47;0.93;;;10.50;99.90;;;;;;5058820;28;20087;-83
2023/03/25 10:34:17;;;;;;;3.78;0.85;;;10.50;99.90;;;;;;5058667;28;20032;-81
2023/03/25 10:36:56;;;;;;;1.02;0.73;;;10.50;99.90;;;;;;5059333;28;20444;-84
2023/03/25 10:39:23;;;;;;;7.43;0.93;;;10.50;99.90;;;;;;5054154;28;20016;-83
2023/03/25 10:42:00;;;;;;;3.95;0.95;;;10.60;99.90;;;;;;5060703;28;20477;-81
2023/03/25 10:44:29;;;;;;;2.40;0.82;;;10.50;99.90;;;;;;5064301;28;20495;-82
2023/03/25 10:47:11;;;;;;;1.90;0.85;;;10.50;99.90;;;;;;5041033;28;20159;-82
2023/03/25 10:49:40;;;;;;;4.22;1.02;;;10.60;99.90;;;;;;5058521;28;20033;-79
2023/03/25 10:52:06;;;;;;;5.68;0.95;;;10.70;99.90;;;;;;5065238;28;20059;-81
2023/03/25 10:54:46;;;;;;;2.42;1.08;;;10.70;99.90;;;;;;5049896;28;20039;-84
2023/03/25 10:57:20;;;;;;;9.57;2.03;;;10.70;99.90;;;;;;5084235;28;20040;-82
2023/03/25 11:00:19;;;;;;;2.75;0.93;;;10.70;99.90;;;;;;5085565;28;20428;-82
2023/03/25 11:02:46;;;;;;;6.03;1.55;;;10.60;99.90;;;;;;5088618;28;20039;-82
2023/03/25 11:05:17;;;;;;;1.90;1.02;;;10.50;99.90;;;;;;5088653;28;20028;-86
2023/03/25 11:08:00;;;;;;;9.52;1.75;;;10.50;99.90;;;;;;5083184;28;20028;-82
2023/03/25 11:10:33;;;;;;;2.72;0.90;;;10.30;99.90;;;;;;5086049;28;20059;-82
2023/03/25 11:13:02;;;;;;;4.28;1.10;;;10.30;99.90;;;;;;5083755;28;20081;-83
2023/03/25 11:15:35;;;;;;;5.93;1.30;;;10.30;99.90;;;;;;5085647;28;20132;-82
2023/03/25 11:18:10;;;;;;;9.35;1.67;;;10.40;99.90;;;;;;5081448;28;20040;-86
2023/03/25 11:20:55;;;;;;;4.90;1.20;;;10.40;99.90;;;;;;5084345;28;20039;-82
2023/03/25 11:23:21;;;;;;;5.07;1.25;;;10.50;99.90;;;;;;5082134;28;20040;-81
2023/03/25 11:25:47;;;;;;;6.82;1.10;;;10.50;99.90;;;;;;5084728;28;20043;-81
2023/03/25 11:28:20;;;;;;;5.38;1.20;;;10.50;99.90;;;;;;5067218;28;20032;-83
2023/03/25 11:31:25;;;;;;;5.18;0.93;;;10.50;99.90;;;;;;5085552;28;20035;-82
2023/03/25 11:34:09;;;;;;;5.25;1.13;;;10.40;99.90;;;;;;4980288;28;20036;-83
2023/03/25 11:36:38;;;;;;;4.43;1.00;;;10.10;99.90;;;;;;4980046;28;20038;-84
2023/03/25 11:39:25;;;;;;;1.42;0.80;;;9.80;99.90;;;;;;5028619;28;20036;-82
2023/03/25 11:41:51;;;;;;;2.08;0.85;;;9.40;99.90;;;;;;5078693;28;20457;-84
2023/03/25 11:44:31;;;;;;;1.73;0.60;;;8.70;99.90;;;;;;5087939;28;20167;-83
2023/03/25 11:47:02;;;;;;;6.47;1.05;;;8.30;99.90;;;;;;5086313;28;20086;-83
2023/03/25 11:49:33;;;;;;;5.60;1.17;;;8.00;99.90;;;;;;5081658;28;20028;-82
2023/03/25 11:52:03;;;;;;;2.85;1.20;;;7.70;99.90;;;;;;5084397;28;20038;-86
2023/03/25 11:54:31;;;;;;;3.60;1.10;;;7.60;99.90;;;;;;5087763;28;20119;-83
2023/03/25 11:56:58;;;;;;;15.38;1.90;;;7.60;99.90;;;;;;5078656;28;20481;-84
2023/03/25 11:59:26;;;;;;;4.95;1.50;;;7.70;99.90;;;;;;5085482;28;20043;-84
2023/03/25 12:02:22;;;;;;;2.50;1.40;;;7.90;99.90;;;;;;5086245;28;20024;-84
2023/03/25 12:05:12;;;;;;;11.38;1.63;;;8.30;99.90;;;;;;5080951;28;20442;-82
2023/03/25 12:07:46;;;;;;;4.88;1.45;;;8.60;99.90;;;;;;5085371;28;20493;-85
2023/03/25 12:10:29;;;;;;;4.17;1.43;;;8.70;99.90;;;;;;5086578;28;20537;-84
2023/03/25 12:13:18;;;;;;;4.03;1.63;;;8.80;99.90;;;;;;5082266;28;20028;-84
2023/03/25 12:16:09;;;;;;;6.50;1.90;;;9.00;99.90;;;;;;5031082;28;20105;-82
2023/03/25 12:18:52;;;;;;;5.30;1.50;;;9.10;99.90;;;;;;5084754;28;20036;-83
2023/03/25 12:21:52;;;;;;;5.97;1.90;;;9.20;99.90;;;;;;5083176;28;20036;-88
2023/03/25 12:24:43;;;;;;;6.00;1.35;;;9.30;99.90;;;;;;5083641;28;20509;-84
2023/03/25 12:27:29;;;;;;;5.82;1.70;;;9.40;99.90;;;;;;5083579;28;20032;-83
2023/03/25 12:30:14;;;;;;;8.05;1.60;;;9.50;99.90;;;;;;5080882;28;20031;-83
2023/03/25 12:32:47;;;;;;;8.98;1.80;;;9.50;99.90;;;;;;5087604;28;20052;-85
2023/03/25 12:35:22;;;;;;;6.80;1.92;;;9.60;99.90;;;;;;5084667;28;20096;-85
2023/03/25 12:37:56;;;;;;;10.90;2.55;;;9.80;99.90;;;;;;5083375;28;20055;-84
2023/03/25 12:40:53;;;;;;;8.05;1.67;;;10.00;99.90;;;;;;5086798;28;20066;-82
2023/03/25 12:43:43;;;;;;;4.07;1.42;;;10.10;99.90;;;;;;5083573;28;20063;-86
2023/03/25 12:46:28;;;;;;;2.38;1.70;;;10.20;99.90;;;;;;5082537;28;20031;-86
2023/03/25 12:49:19;;;;;;;3.80;1.45;;;10.20;99.90;;;;;;5085489;28;20020;-81
2023/03/25 12:52:26;;;;;;;4.10;1.52;;;10.40;99.90;;;;;;5085306;28;20469;-84
2023/03/25 12:54:55;;;;;;;6.72;1.90;;;10.70;99.90;;;;;;5050123;28;20256;-86
2023/03/25 12:58:02;;;;;;;5.68;1.75;;;11.00;99.90;;;;;;5082011;28;20105;-81
2023/03/25 13:00:51;;;;;;;6.97;1.92;;;11.30;99.90;;;;;;5085290;28;20020;-83
2023/03/25 13:03:24;;;;;;;4.50;1.15;;;11.50;99.90;;;;;;5071603;28;20082;-81
2023/03/25 13:05:58;;;;;;;3.88;1.40;;;11.70;99.90;;;;;;5078975;28;20038;-86
2023/03/25 13:08:39;;;;;;;10.27;1.50;;;11.80;99.90;;;;;;5082384;28;20024;-79
2023/03/25 13:11:22;;;;;;;3.35;1.13;;;11.80;99.90;;;;;;5084733;28;20028;-85
2023/03/25 13:13:52;;;;;;;6.90;2.20;;;11.90;99.90;;;;;;5080026;28;20028;-83
2023/03/25 13:16:22;;;;;;;7.18;1.35;;;11.90;99.90;;;;;;5083122;28;20032;-81
2023/03/25 13:18:52;;;;;;;4.03;1.48;;;12.00;99.90;;;;;;5082752;28;20031;-80
2023/03/25 13:21:29;;;;;;;2.00;1.40;;;12.20;99.90;;;;;;5083893;28;20028;-88